Time;durP1;ratioP1;P1;durP2;ratioP2;P2;SDS_P1;SDS_P2;PMS_P1;PMS_P2;Temp;Humidity;BMP_temperature;BMP_pressure;BME280_temperature;BME280_humidity;BME280_pressure;Samples;Min_cycle;Max_cycle;Signal;HPM_P1;HPM_P2
2022/09/21 00:01:07;;;;;;;4.75;2.92;;;;;;;;;;10182138;28;20395;-51
2022/09/21 00:06:06;;;;;;;6.15;2.70;;;;;;;;;;10157275;28;20047;-49
2022/09/21 00:10:59;;;;;;;5.20;2.42;;;;;;;;;;10178223;28;20074;-49
2022/09/21 00:15:54;;;;;;;5.15;2.92;;;;;;;;;;10166044;28;20056;-51
2022/09/21 00:20:48;;;;;;;8.75;2.72;;;;;;;;;;10167582;28;20044;-52
2022/09/21 00:25:42;;;;;;;7.65;4.63;;;;;;;;;;10186021;28;20079;-52
2022/09/21 00:30:37;;;;;;;7.43;4.72;;;;;;;;;;10180599;28;20087;-51
2022/09/21 00:35:32;;;;;;;5.35;4.10;;;;;;;;;;10187468;28;20052;-50
2022/09/21 00:40:33;;;;;;;5.95;3.33;;;;;;;;;;10186673;28;20101;-51
2022/09/21 00:45:27;;;;;;;4.55;3.25;;;;;;;;;;10166764;28;20048;-49
2022/09/21 00:50:23;;;;;;;4.95;3.53;;;;;;;;;;10185590;28;20509;-54
2022/09/21 00:55:25;;;;;;;3.45;3.15;;;;;;;;;;10168885;28;20044;-54
2022/09/21 01:00:24;;;;;;;20.75;5.65;;;;;;;;;;10173699;28;20055;-54
2022/09/21 01:05:18;;;;;;;7.65;3.17;;;;;;;;;;10188907;28;20067;-53
2022/09/21 01:10:15;;;;;;;4.70;3.05;;;;;;;;;;10182290;28;20044;-54
2022/09/21 01:15:17;;;;;;;9.35;4.85;;;;;;;;;;10161730;28;20604;-49
2022/09/21 01:20:26;;;;;;;5.75;4.68;;;;;;;;;;10176579;28;20044;-51
2022/09/21 01:25:46;;;;;;;7.32;4.57;;;;;;;;;;10188385;28;20058;-51
2022/09/21 01:30:40;;;;;;;7.80;3.75;;;;;;;;;;10165413;28;20106;-54
2022/09/21 01:35:46;;;;;;;7.38;4.05;;;;;;;;;;10145391;28;20095;-50
2022/09/21 01:40:43;;;;;;;6.50;3.80;;;;;;;;;;10141449;28;20044;-51
2022/09/21 01:45:41;;;;;;;3.90;3.60;;;;;;;;;;10156583;28;20446;-51
2022/09/21 01:50:39;;;;;;;5.35;4.35;;;;;;;;;;10156100;28;20056;-52
2022/09/21 01:55:39;;;;;;;8.02;3.90;;;;;;;;;;10141754;28;20067;-49
2022/09/21 02:00:34;;;;;;;4.38;3.47;;;;;;;;;;10152450;28;20055;-47
2022/09/21 02:05:29;;;;;;;5.00;4.50;;;;;;;;;;10151707;28;20092;-50
2022/09/21 02:10:29;;;;;;;7.38;4.60;;;;;;;;;;10159401;28;20384;-52
2022/09/21 02:15:43;;;;;;;4.88;4.13;;;;;;;;;;10148732;28;20060;-52
2022/09/21 02:20:48;;;;;;;5.82;3.45;;;;;;;;;;10134370;28;20147;-53
2022/09/21 02:26:05;;;;;;;6.32;3.75;;;;;;;;;;10134431;28;20464;-54
2022/09/21 02:31:19;;;;;;;4.05;3.65;;;;;;;;;;10118124;28;20083;-54
2022/09/21 02:36:21;;;;;;;7.95;4.00;;;;;;;;;;10147447;28;20056;-54
2022/09/21 02:41:33;;;;;;;8.40;4.85;;;;;;;;;;10133902;28;20067;-54
2022/09/21 02:46:33;;;;;;;6.50;4.88;;;;;;;;;;10112475;28;20062;-52
2022/09/21 02:51:32;;;;;;;7.00;5.15;;;;;;;;;;10139462;28;20056;-55
2022/09/21 02:56:27;;;;;;;7.93;5.75;;;;;;;;;;10140601;28;20137;-53
2022/09/21 03:01:21;;;;;;;8.32;4.40;;;;;;;;;;10141581;28;20039;-53
2022/09/21 03:06:16;;;;;;;7.90;4.55;;;;;;;;;;10130175;28;20423;-53
2022/09/21 03:11:16;;;;;;;7.72;4.72;;;;;;;;;;10107326;28;20071;-51
2022/09/21 03:16:09;;;;;;;7.55;4.55;;;;;;;;;;10118901;28;20044;-51
2022/09/21 03:21:03;;;;;;;6.53;4.40;;;;;;;;;;10144886;28;20054;-52
2022/09/21 03:25:57;;;;;;;4.97;4.43;;;;;;;;;;10142838;28;20049;-54
2022/09/21 03:30:51;;;;;;;8.90;5.05;;;;;;;;;;10159167;28;20080;-53
2022/09/21 03:35:46;;;;;;;6.35;4.65;;;;;;;;;;10163568;28;20051;-52
2022/09/21 03:40:40;;;;;;;5.57;4.68;;;;;;;;;;10173613;28;20127;-52
2022/09/21 03:45:33;;;;;;;8.02;4.60;;;;;;;;;;10153824;28;20052;-52
2022/09/21 03:50:28;;;;;;;5.35;4.78;;;;;;;;;;10174985;28;20068;-53
2022/09/21 03:55:22;;;;;;;8.75;4.95;;;;;;;;;;10180388;28;20127;-54
2022/09/21 04:00:16;;;;;;;7.05;4.60;;;;;;;;;;10158716;28;20048;-54
2022/09/21 04:05:13;;;;;;;5.30;4.80;;;;;;;;;;10160410;28;20056;-53
2022/09/21 04:10:11;;;;;;;10.75;4.75;;;;;;;;;;10160500;28;20134;-51
2022/09/21 04:15:10;;;;;;;16.73;7.00;;;;;;;;;;10193574;28;20044;-54
2022/09/21 04:20:03;;;;;;;7.10;5.57;;;;;;;;;;10164456;28;20044;-54
2022/09/21 04:24:57;;;;;;;11.02;6.55;;;;;;;;;;10187785;28;20135;-55
2022/09/21 04:29:51;;;;;;;17.48;8.43;;;;;;;;;;10174366;28;20048;-54
2022/09/21 04:34:45;;;;;;;11.77;8.32;;;;;;;;;;10185285;28;20059;-54
2022/09/21 04:39:39;;;;;;;15.05;8.60;;;;;;;;;;10189533;28;20097;-54
2022/09/21 04:44:34;;;;;;;10.27;7.38;;;;;;;;;;10170803;28;20499;-54
2022/09/21 04:49:28;;;;;;;7.70;6.75;;;;;;;;;;10182633;28;20063;-52
2022/09/21 04:54:22;;;;;;;6.05;4.88;;;;;;;;;;10183651;28;20124;-51
2022/09/21 04:59:16;;;;;;;12.02;4.70;;;;;;;;;;10174259;28;20499;-52
2022/09/21 05:04:11;;;;;;;5.75;4.07;;;;;;;;;;10190930;28;20052;-51
2022/09/21 05:14:18;;;;;;;7.00;4.80;;;;;;;;;;10186290;28;20075;-50
2022/09/21 05:19:12;;;;;;;6.82;4.30;;;;;;;;;;10181938;28;20181;-49
2022/09/21 05:24:09;;;;;;;9.85;5.00;;;;;;;;;;10175557;28;20525;-52
2022/09/21 05:29:04;;;;;;;5.00;3.63;;;;;;;;;;10160249;28;20470;-48
2022/09/21 05:34:08;;;;;;;6.70;3.67;;;;;;;;;;10125989;28;20048;-52
2022/09/21 05:39:02;;;;;;;7.03;3.22;;;;;;;;;;10147637;28;20048;-51
2022/09/21 05:43:57;;;;;;;16.55;5.32;;;;;;;;;;10146625;28;20407;-53
2022/09/21 05:49:20;;;;;;;9.27;4.65;;;;;;;;;;10134954;28;20496;-47
2022/09/21 05:54:28;;;;;;;12.02;6.05;;;;;;;;;;10138777;28;20050;-49
2022/09/21 06:00:00;;;;;;;14.88;9.80;;;;;;;;;;10146562;28;20438;-50
2022/09/21 06:05:07;;;;;;;23.17;16.73;;;;;;;;;;10130211;28;20392;-50
2022/09/21 06:10:01;;;;;;;23.55;18.98;;;;;;;;;;10148074;28;20139;-52
2022/09/21 06:14:55;;;;;;;35.67;20.05;;;;;;;;;;10148167;28;20052;-53
2022/09/21 06:19:50;;;;;;;37.95;18.25;;;;;;;;;;10144585;28;20048;-51
2022/09/21 06:24:44;;;;;;;26.60;17.38;;;;;;;;;;10140008;28;20053;-48
2022/09/21 06:29:38;;;;;;;23.15;16.35;;;;;;;;;;10165698;28;20465;-50
2022/09/21 06:34:31;;;;;;;24.95;16.92;;;;;;;;;;10175478;28;20499;-51
2022/09/21 06:39:25;;;;;;;26.73;18.23;;;;;;;;;;10178925;28;20054;-53
2022/09/21 06:44:19;;;;;;;28.40;17.10;;;;;;;;;;10172612;28;20056;-49
2022/09/21 06:49:13;;;;;;;25.08;19.38;;;;;;;;;;10168315;28;20536;-54
2022/09/21 06:54:08;;;;;;;24.98;18.80;;;;;;;;;;10172865;28;20052;-52
2022/09/21 06:59:02;;;;;;;27.83;21.20;;;;;;;;;;10184345;28;20391;-52
2022/09/21 07:03:56;;;;;;;28.90;20.95;;;;;;;;;;10183659;28;20090;-54
2022/09/21 07:08:52;;;;;;;37.00;25.38;;;;;;;;;;10179079;28;20052;-54
2022/09/21 07:14:06;;;;;;;50.58;32.63;;;;;;;;;;10171389;28;20054;-55
2022/09/21 07:19:01;;;;;;;35.95;32.15;;;;;;;;;;10176770;28;20074;-51
2022/09/21 07:24:04;;;;;;;26.95;24.20;;;;;;;;;;10173146;28;20093;-51
2022/09/21 07:29:04;;;;;;;14.95;11.90;;;;;;;;;;10167700;28;20056;-52
2022/09/21 07:33:58;;;;;;;12.52;6.50;;;;;;;;;;10180110;28;20462;-54
2022/09/21 07:38:52;;;;;;;8.35;4.53;;;;;;;;;;10184144;28;20406;-53
2022/09/21 07:43:46;;;;;;;5.22;2.65;;;;;;;;;;10180634;28;20056;-51
2022/09/21 07:48:40;;;;;;;6.93;2.40;;;;;;;;;;10186977;28;20495;-53
2022/09/21 07:53:35;;;;;;;3.15;2.35;;;;;;;;;;10173229;28;20044;-54
2022/09/21 08:03:41;;;;;;;6.63;2.95;;;;;;;;;;10185869;28;20174;-49
2022/09/21 08:08:35;;;;;;;6.32;1.77;;;;;;;;;;10179169;28;20060;-53
2022/09/21 08:13:27;;;;;;;2.17;1.42;;;;;;;;;;10181467;28;20055;-55
2022/09/21 08:18:22;;;;;;;3.58;1.90;;;;;;;;;;10181694;28;20052;-53
2022/09/21 08:23:17;;;;;;;3.22;1.30;;;;;;;;;;10179665;28;20045;-55
2022/09/21 08:28:10;;;;;;;3.70;1.30;;;;;;;;;;10181647;28;20048;-55
2022/09/21 08:33:05;;;;;;;4.22;1.05;;;;;;;;;;10181917;28;20056;-54
2022/09/21 08:37:59;;;;;;;7.38;1.27;;;;;;;;;;10182750;28;20048;-54
2022/09/21 08:42:56;;;;;;;3.63;1.02;;;;;;;;;;10190277;28;20406;-55
2022/09/21 08:47:52;;;;;;;2.50;0.80;;;;;;;;;;10169868;28;20465;-52
2022/09/21 08:52:46;;;;;;;3.25;1.05;;;;;;;;;;10185135;28;20056;-55
2022/09/21 08:57:39;;;;;;;1.80;0.93;;;;;;;;;;10181974;28;20044;-54
2022/09/21 09:03:02;;;;;;;5.55;1.08;;;;;;;;;;10181088;28;20072;-53
2022/09/21 09:08:10;;;;;;;4.57;0.95;;;;;;;;;;10178619;28;20052;-54
2022/09/21 09:13:19;;;;;;;7.28;1.20;;;;;;;;;;10175334;28;20044;-55
2022/09/21 09:18:18;;;;;;;5.50;1.00;;;;;;;;;;10176548;28;20616;-55
2022/09/21 09:23:17;;;;;;;2.45;0.90;;;;;;;;;;10181801;28;20058;-54
2022/09/21 09:28:20;;;;;;;5.50;1.17;;;;;;;;;;10165708;28;20045;-54
2022/09/21 09:33:26;;;;;;;3.97;1.20;;;;;;;;;;10116941;28;20415;-53
2022/09/21 09:38:32;;;;;;;1.55;0.88;;;;;;;;;;10131957;28;20053;-53
2022/09/21 09:43:28;;;;;;;7.70;1.20;;;;;;;;;;10122104;28;20048;-54
2022/09/21 09:48:48;;;;;;;4.60;0.93;;;;;;;;;;10129204;28;20049;-55
2022/09/21 09:53:46;;;;;;;1.67;0.90;;;;;;;;;;10132151;28;20057;-53
2022/09/21 09:58:52;;;;;;;5.78;0.90;;;;;;;;;;10138537;28;20079;-55
2022/09/21 10:04:24;;;;;;;3.72;0.82;;;;;;;;;;10115144;28;20056;-53
2022/09/21 10:09:19;;;;;;;4.47;1.20;;;;;;;;;;10130531;28;20127;-53
2022/09/21 10:14:17;;;;;;;3.03;0.80;;;;;;;;;;10135646;28;20060;-54
2022/09/21 10:19:18;;;;;;;2.50;0.90;;;;;;;;;;10125297;28;20045;-56
2022/09/21 10:24:32;;;;;;;3.38;0.90;;;;;;;;;;10117904;28;20094;-55
2022/09/21 10:29:28;;;;;;;1.98;0.75;;;;;;;;;;10166373;28;20052;-56
2022/09/21 10:34:22;;;;;;;2.83;0.80;;;;;;;;;;10152727;28;20044;-56
2022/09/21 10:39:27;;;;;;;3.95;1.10;;;;;;;;;;10171912;28;20461;-56
2022/09/21 10:44:22;;;;;;;2.83;0.88;;;;;;;;;;10170025;28;20044;-56
2022/09/21 10:50:01;;;;;;;1.73;0.90;;;;;;;;;;10156214;28;20052;-56
2022/09/21 10:54:56;;;;;;;1.10;0.90;;;;;;;;;;10177800;28;20419;-57
2022/09/21 10:59:50;;;;;;;2.78;0.85;;;;;;;;;;10173312;28;20097;-57
2022/09/21 11:04:48;;;;;;;4.28;1.02;;;;;;;;;;10177487;28;20054;-56
2022/09/21 11:10:10;;;;;;;9.73;1.17;;;;;;;;;;10151154;28;20058;-56
2022/09/21 11:15:37;;;;;;;2.03;1.08;;;;;;;;;;10163715;28;20067;-56
2022/09/21 11:20:46;;;;;;;5.88;1.50;;;;;;;;;;10084281;28;20071;-53
2022/09/21 11:25:42;;;;;;;4.15;1.45;;;;;;;;;;10171231;28;20075;-55
2022/09/21 11:30:58;;;;;;;7.07;1.50;;;;;;;;;;10182409;28;20076;-56
2022/09/21 11:36:13;;;;;;;;;;;;;;;;;;10170830;28;20071;-54
2022/09/21 11:41:23;;;;;;;4.43;1.33;;;;;;;;;;10172579;28;19966;-55
2022/09/21 11:46:39;;;;;;;2.67;0.93;;;;;;;;;;10177848;28;20403;-55
2022/09/21 11:52:00;;;;;;;7.40;1.67;;;;;;;;;;10142705;28;20086;-55
2022/09/21 11:57:17;;;;;;;3.58;0.90;;;;;;;;;;10169426;28;20056;-55
2022/09/21 12:02:39;;;;;;;3.50;0.70;;;;;;;;;;10176089;28;20127;-55
2022/09/21 12:07:51;;;;;;;4.13;0.60;;;;;;;;;;10176412;28;20874;-54
2022/09/21 12:12:50;;;;;;;2.15;0.60;;;;;;;;;;10179252;28;20062;-56
2022/09/21 12:17:42;;;;;;;4.43;0.70;;;;;;;;;;10177867;28;20084;-51
2022/09/21 12:22:41;;;;;;;2.70;0.70;;;;;;;;;;10172400;28;20052;-52
2022/09/21 12:27:46;;;;;;;5.35;0.73;;;;;;;;;;10154094;28;20058;-53
2022/09/21 12:33:08;;;;;;;3.03;1.48;;;;;;;;;;10133149;28;20128;-53
2022/09/21 12:38:55;;;;;;;4.30;0.70;;;;;;;;;;10131780;28;20045;-49
2022/09/21 12:43:54;;;;;;;3.33;0.90;;;;;;;;;;9984301;28;20061;-51
2022/09/21 12:48:46;;;;;;;7.88;1.00;;;;;;;;;;10097810;28;20048;-52
2022/09/21 12:53:46;;;;;;;3.85;0.70;;;;;;;;;;10137036;28;20470;-52
2022/09/21 12:58:50;;;;;;;5.68;0.88;;;;;;;;;;10118670;28;20136;-51
2022/09/21 13:04:11;;;;;;;6.03;0.82;;;;;;;;;;10122140;28;20496;-54
2022/09/21 13:09:05;;;;;;;1.70;1.00;;;;;;;;;;10121391;28;20518;-52
2022/09/21 13:14:08;;;;;;;3.45;0.80;;;;;;;;;;10130580;28;20086;-51
2022/09/21 13:19:12;;;;;;;2.40;0.80;;;;;;;;;;10133425;28;20128;-53
2022/09/21 13:24:22;;;;;;;2.22;0.77;;;;;;;;;;10136680;28;20043;-53
2022/09/21 13:29:17;;;;;;;1.85;0.80;;;;;;;;;;10120601;28;20129;-53
2022/09/21 13:34:38;;;;;;;4.45;0.75;;;;;;;;;;10135735;28;20091;-52
2022/09/21 13:39:32;;;;;;;11.85;1.65;;;;;;;;;;10127618;28;20056;-49
2022/09/21 13:45:03;;;;;;;1.20;0.68;;;;;;;;;;10145708;28;20463;-51
2022/09/21 13:49:57;;;;;;;6.05;0.63;;;;;;;;;;10134010;28;20506;-49
2022/09/21 13:54:56;;;;;;;4.15;0.70;;;;;;;;;;10129540;28;20177;-52
2022/09/21 14:00:11;;;;;;;4.67;0.80;;;;;;;;;;10137021;28;20057;-50
2022/09/21 14:05:40;;;;;;;5.15;1.23;;;;;;;;;;10141665;28;20294;-52
2022/09/21 14:10:36;;;;;;;5.40;1.20;;;;;;;;;;10138174;28;20080;-49
2022/09/21 14:15:31;;;;;;;6.68;1.10;;;;;;;;;;10127794;28;20076;-49
2022/09/21 14:20:28;;;;;;;1.75;1.08;;;;;;;;;;10140169;28;20131;-51
2022/09/21 14:25:27;;;;;;;4.33;0.77;;;;;;;;;;10114416;28;20048;-54
2022/09/21 14:30:31;;;;;;;2.97;1.50;;;;;;;;;;10145222;28;20056;-52
2022/09/21 14:35:27;;;;;;;2.13;0.50;;;;;;;;;;10157212;28;20052;-53
2022/09/21 14:40:34;;;;;;;1.67;0.50;;;;;;;;;;10182297;28;20051;-54
2022/09/21 14:45:46;;;;;;;4.57;0.70;;;;;;;;;;10183485;28;20047;-53
2022/09/21 14:50:48;;;;;;;4.30;0.82;;;;;;;;;;10181226;28;20071;-54
2022/09/21 14:55:45;;;;;;;0.50;0.50;;;;;;;;;;10165259;28;20499;-51
2022/09/21 15:00:42;;;;;;;11.45;0.90;;;;;;;;;;10143351;28;20396;-51
2022/09/21 15:05:39;;;;;;;1.85;0.63;;;;;;;;;;10183059;28;20051;-54
2022/09/21 15:11:07;;;;;;;0.90;0.52;;;;;;;;;;10159920;28;20036;-53
2022/09/21 15:16:27;;;;;;;5.13;1.00;;;;;;;;;;10183804;28;20116;-53
2022/09/21 15:21:43;;;;;;;4.50;0.80;;;;;;;;;;10174069;28;20051;-54
2022/09/21 15:26:39;;;;;;;1.13;0.40;;;;;;;;;;10170233;28;20055;-50
2022/09/21 15:31:38;;;;;;;1.08;0.60;;;;;;;;;;10179954;28;20129;-54
2022/09/21 15:36:34;;;;;;;5.22;0.80;;;;;;;;;;10166016;28;20041;-49
2022/09/21 15:41:41;;;;;;;1.13;0.60;;;;;;;;;;10155623;28;20056;-53
2022/09/21 15:46:36;;;;;;;4.10;0.60;;;;;;;;;;10178188;28;20056;-50
2022/09/21 15:51:38;;;;;;;4.53;0.68;;;;;;;;;;10163695;28;20463;-51
2022/09/21 15:56:35;;;;;;;0.88;0.65;;;;;;;;;;10139604;28;20040;-50
2022/09/21 16:01:30;;;;;;;1.80;0.68;;;;;;;;;;10170987;28;20135;-48
2022/09/21 16:06:29;;;;;;;1.98;0.80;;;;;;;;;;10172292;28;20048;-49
2022/09/21 16:11:25;;;;;;;1.40;1.05;;;;;;;;;;10178419;28;20567;-50
2022/09/21 16:16:19;;;;;;;1.25;0.50;;;;;;;;;;10163319;28;20048;-51
2022/09/21 16:21:38;;;;;;;1.00;0.90;;;;;;;;;;10178232;28;20048;-52
2022/09/21 16:26:36;;;;;;;0.77;0.55;;;;;;;;;;10180001;28;20059;-49
2022/09/21 16:31:32;;;;;;;2.42;0.70;;;;;;;;;;10173467;28;20093;-51
2022/09/21 16:36:33;;;;;;;4.43;0.60;;;;;;;;;;10173195;28;20177;-50
2022/09/21 16:41:33;;;;;;;1.70;0.68;;;;;;;;;;10166958;28;20056;-52
2022/09/21 16:46:27;;;;;;;1.63;0.63;;;;;;;;;;10168252;28;20097;-52
2022/09/21 16:51:25;;;;;;;5.00;0.70;;;;;;;;;;10185901;28;20086;-52
2022/09/21 16:56:20;;;;;;;0.57;0.57;;;;;;;;;;10170757;28;20075;-51
2022/09/21 17:01:19;;;;;;;2.88;0.80;;;;;;;;;;10171265;28;20048;-52
2022/09/21 17:06:19;;;;;;;1.73;0.90;;;;;;;;;;10189615;28;20145;-51
2022/09/21 17:11:18;;;;;;;3.28;0.73;;;;;;;;;;10170603;28;21511;-53
2022/09/21 17:16:17;;;;;;;2.42;1.40;;;;;;;;;;10179416;28;20044;-52
2022/09/21 17:21:14;;;;;;;3.25;0.98;;;;;;;;;;10171002;28;20119;-51
2022/09/21 17:26:30;;;;;;;2.42;1.20;;;;;;;;;;10167801;28;20082;-50
2022/09/21 17:31:24;;;;;;;4.97;1.88;;;;;;;;;;10167861;28;20052;-53
2022/09/21 17:36:18;;;;;;;5.70;1.08;;;;;;;;;;10172399;28;20503;-52
2022/09/21 17:41:26;;;;;;;2.50;1.10;;;;;;;;;;10183964;28;20131;-52
2022/09/21 17:46:53;;;;;;;4.25;2.22;;;;;;;;;;10171905;28;20041;-53
2022/09/21 17:57:03;;;;;;;3.75;0.90;;;;;;;;;;10159106;28;20043;-51
2022/09/21 18:01:58;;;;;;;3.42;1.25;;;;;;;;;;10172772;28;20058;-51
2022/09/21 18:06:55;;;;;;;5.85;1.33;;;;;;;;;;10170087;28;20567;-52
2022/09/21 18:12:14;;;;;;;5.57;1.00;;;;;;;;;;10179133;28;20040;-53
2022/09/21 18:17:42;;;;;;;5.15;1.30;;;;;;;;;;10018320;28;20057;-52
2022/09/21 18:22:59;;;;;;;3.67;0.80;;;;;;;;;;10163126;28;20079;-54
2022/09/21 18:28:31;;;;;;;4.32;1.10;;;;;;;;;;10159818;28;20055;-53
2022/09/21 18:33:38;;;;;;;3.30;1.35;;;;;;;;;;10158658;28;20048;-49
2022/09/21 18:38:40;;;;;;;4.07;1.35;;;;;;;;;;10130170;28;20101;-51
2022/09/21 18:43:52;;;;;;;8.45;1.67;;;;;;;;;;10123178;28;20052;-58
2022/09/21 18:49:01;;;;;;;5.10;1.35;;;;;;;;;;10142564;28;20044;-55
2022/09/21 18:53:56;;;;;;;4.25;1.10;;;;;;;;;;10132628;28;20045;-52
2022/09/21 18:58:50;;;;;;;1.83;1.25;;;;;;;;;;10135341;28;20119;-52
2022/09/21 19:03:46;;;;;;;3.92;1.30;;;;;;;;;;10122692;28;20052;-51
2022/09/21 19:08:58;;;;;;;1.98;1.27;;;;;;;;;;10134240;28;20083;-53
2022/09/21 19:14:17;;;;;;;3.97;1.23;;;;;;;;;;10118452;28;20044;-52
2022/09/21 19:19:43;;;;;;;1.60;1.05;;;;;;;;;;10138620;28;20133;-49
2022/09/21 19:25:18;;;;;;;3.60;1.52;;;;;;;;;;10108166;28;20384;-53
2022/09/21 19:30:15;;;;;;;3.75;1.25;;;;;;;;;;10050983;28;20060;-52
2022/09/21 19:35:19;;;;;;;6.47;1.83;;;;;;;;;;10133815;28;20423;-52
2022/09/21 19:40:17;;;;;;;4.00;1.70;;;;;;;;;;10131907;28;20469;-52
2022/09/21 19:45:18;;;;;;;4.53;1.70;;;;;;;;;;10118012;28;20067;-52
2022/09/21 19:50:10;;;;;;;5.55;1.90;;;;;;;;;;10127434;28;20049;-51
2022/09/21 20:00:19;;;;;;;4.60;2.03;;;;;;;;;;10132438;28;20049;-50
2022/09/21 20:05:29;;;;;;;5.55;2.22;;;;;;;;;;10130374;28;20503;-53
2022/09/21 20:10:31;;;;;;;7.38;3.35;;;;;;;;;;10120986;28;20423;-53
2022/09/21 20:15:31;;;;;;;3.88;2.40;;;;;;;;;;10130457;28;20036;-51
2022/09/21 20:20:25;;;;;;;6.68;1.60;;;;;;;;;;10129143;28;20075;-52
2022/09/21 20:25:31;;;;;;;4.20;1.67;;;;;;;;;;10114322;28;20055;-52
2022/09/21 20:30:31;;;;;;;1.67;1.02;;;;;;;;;;10117920;28;20056;-52
2022/09/21 20:35:27;;;;;;;33.70;4.30;;;;;;;;;;10129633;28;20045;-51
2022/09/21 20:40:25;;;;;;;2.97;1.73;;;;;;;;;;10130455;28;20504;-54
2022/09/21 20:45:19;;;;;;;2.30;1.70;;;;;;;;;;10136632;28;20110;-53
2022/09/21 20:50:12;;;;;;;3.33;1.90;;;;;;;;;;10127429;28;20416;-52
2022/09/21 20:55:08;;;;;;;5.00;1.95;;;;;;;;;;10141354;28;20044;-53
2022/09/21 21:00:10;;;;;;;2.00;1.70;;;;;;;;;;10143083;28;20435;-51
2022/09/21 21:05:04;;;;;;;7.93;1.95;;;;;;;;;;10126979;28;20052;-51
2022/09/21 21:09:59;;;;;;;5.75;1.55;;;;;;;;;;10130242;28;20067;-52
2022/09/21 21:14:53;;;;;;;2.33;1.58;;;;;;;;;;10119980;28;20063;-53
2022/09/21 21:19:47;;;;;;;2.55;1.40;;;;;;;;;;10130303;28;20056;-53
2022/09/21 21:24:42;;;;;;;3.15;1.60;;;;;;;;;;10125067;28;20131;-53
2022/09/21 21:29:37;;;;;;;4.53;2.47;;;;;;;;;;10158832;28;20099;-52
2022/09/21 21:34:31;;;;;;;3.65;1.67;;;;;;;;;;10170628;28;20040;-53
2022/09/21 21:39:27;;;;;;;6.30;1.48;;;;;;;;;;10179162;28;20076;-52
2022/09/21 21:44:23;;;;;;;1.05;1.00;;;;;;;;;;10177199;28;20132;-52
2022/09/21 21:49:21;;;;;;;;;;;;;;;;;;10173272;28;20402;-53
2022/09/21 21:54:21;;;;;;;3.85;1.38;;;;;;;;;;10173469;28;20344;-54
2022/09/21 21:59:16;;;;;;;4.03;1.45;;;;;;;;;;10179423;28;20402;-51
2022/09/21 22:04:11;;;;;;;4.60;1.35;;;;;;;;;;10175757;28;20050;-53
2022/09/21 22:09:08;;;;;;;1.48;1.10;;;;;;;;;;10182497;28;20052;-52
2022/09/21 22:14:07;;;;;;;3.58;1.90;;;;;;;;;;10174670;28;20724;-53
2022/09/21 22:19:06;;;;;;;3.17;1.20;;;;;;;;;;10171581;28;20131;-54
2022/09/21 22:24:04;;;;;;;1.30;1.20;;;;;;;;;;10176331;28;20086;-53
2022/09/21 22:29:01;;;;;;;1.08;1.08;;;;;;;;;;10160332;28;20060;-53
2022/09/21 22:34:00;;;;;;;3.42;1.25;;;;;;;;;;10143605;28;20044;-53
2022/09/21 22:38:59;;;;;;;4.82;1.10;;;;;;;;;;10139602;28;20442;-52
2022/09/21 22:43:55;;;;;;;2.78;1.05;;;;;;;;;;10140409;28;20060;-53
2022/09/21 22:48:51;;;;;;;1.35;0.95;;;;;;;;;;10120877;28;20052;-51
2022/09/21 22:53:46;;;;;;;1.63;1.00;;;;;;;;;;10145510;28;20625;-53
2022/09/21 22:58:52;;;;;;;2.92;1.30;;;;;;;;;;10160524;28;20052;-52
2022/09/21 23:03:51;;;;;;;2.42;1.13;;;;;;;;;;10147820;28;20044;-54
2022/09/21 23:08:49;;;;;;;1.30;1.20;;;;;;;;;;10154410;28;20076;-54
2022/09/21 23:13:43;;;;;;;3.65;1.50;;;;;;;;;;10156485;28;20052;-53
2022/09/21 23:18:38;;;;;;;1.30;1.20;;;;;;;;;;10154662;28;20060;-54
2022/09/21 23:23:32;;;;;;;1.80;1.30;;;;;;;;;;10152829;28;20033;-53
2022/09/21 23:28:26;;;;;;;1.77;1.27;;;;;;;;;;10150976;28;20416;-52
2022/09/21 23:33:20;;;;;;;1.30;0.95;;;;;;;;;;10135387;28;20053;-52
2022/09/21 23:38:14;;;;;;;3.88;1.17;;;;;;;;;;10143141;28;20052;-52
2022/09/21 23:43:08;;;;;;;1.25;1.15;;;;;;;;;;10135945;28;20052;-53
2022/09/21 23:48:02;;;;;;;1.80;0.88;;;;;;;;;;10137944;28;20084;-52
2022/09/21 23:52:56;;;;;;;2.42;1.15;;;;;;;;;;10144072;28;20049;-52
2022/09/21 23:57:50;;;;;;;2.70;1.30;;;;;;;;;;10145686;28;20059;-51
